Time;durP1;ratioP1;P1;durP2;ratioP2;P2;SDS_P1;SDS_P2;PMS_P1;PMS_P2;Temp;Humidity;BMP_temperature;BMP_pressure;BME280_temperature;BME280_humidity;BME280_pressure;Samples;Min_cycle;Max_cycle;Signal;HPM_P1;HPM_P2
2022/06/04 00:01:53;;;;;;;6.20;5.20;;;;;;;16.22;53.90;100802.30;106302;1271;23077;-76
2022/06/04 00:04:20;;;;;;;6.00;5.40;;;;;;;16.24;53.98;100800.33;106591;1271;22522;-78
2022/06/04 00:06:48;;;;;;;7.20;4.70;;;;;;;16.21;53.94;100798.95;106802;1271;22789;-75
2022/06/04 00:09:16;;;;;;;5.50;4.80;;;;;;;16.18;53.81;100794.23;106378;1271;22545;-75
2022/06/04 00:17:25;;;;;;;5.10;4.60;;;;;;;16.16;53.86;100792.17;106105;1271;25466;-72
2022/06/04 00:19:53;;;;;;;6.70;4.10;;;;;;;16.13;53.81;100788.33;106339;1271;22703;-75
2022/06/04 00:22:20;;;;;;;5.30;4.50;;;;;;;16.12;53.75;100790.50;106180;1271;26612;-71
2022/06/04 00:24:47;;;;;;;5.70;4.30;;;;;;;16.14;53.89;100789.20;106274;1271;23024;-71
2022/06/04 00:27:17;;;;;;;5.10;4.60;;;;;;;16.17;53.66;100785.02;106207;1271;22550;-73
2022/06/04 00:29:44;;;;;;;4.90;4.10;;;;;;;16.18;53.75;100778.06;106202;1270;22600;-75
2022/06/04 00:32:11;;;;;;;5.00;4.20;;;;;;;16.17;53.82;100775.23;106353;1271;25313;-74
2022/06/04 00:34:38;;;;;;;7.30;4.60;;;;;;;16.21;53.86;100769.81;106251;1271;22612;-73
2022/06/04 00:37:05;;;;;;;9.00;5.20;;;;;;;16.22;53.83;100769.97;106257;1271;22524;-75
2022/06/04 00:39:32;;;;;;;5.00;4.40;;;;;;;16.21;53.89;100770.17;106309;1271;22586;-74
2022/06/04 00:42:09;;;;;;;5.70;5.10;;;;;;;16.21;53.82;100771.23;105866;1275;22563;-74
2022/06/04 00:44:36;;;;;;;6.50;4.90;;;;;;;16.18;53.88;100769.88;105808;1275;25362;-72
2022/06/04 00:47:14;;;;;;;6.60;4.50;;;;;;;16.17;53.98;100769.02;105780;1277;25002;-72
2022/06/04 00:49:41;;;;;;;6.20;4.70;;;;;;;16.17;54.16;100767.27;105800;1275;22572;-75
2022/06/04 00:52:13;;;;;;;5.50;5.00;;;;;;;16.14;54.29;100773.00;106009;1277;25477;-72
2022/06/04 00:54:41;;;;;;;7.70;4.90;;;;;;;16.08;54.31;100770.33;105924;1277;24552;-72
2022/06/04 00:57:29;;;;;;;6.30;5.00;;;;;;;16.04;54.28;100769.73;106061;1277;24203;-74
2022/06/04 01:00:05;;;;;;;5.70;4.90;;;;;;;16.00;54.55;100763.42;105971;1271;24383;-79
2022/06/04 01:02:44;;;;;;;5.90;5.20;;;;;;;15.93;54.67;100762.50;106342;1271;22527;-74
2022/06/04 01:05:49;;;;;;;6.20;5.60;;;;;;;15.92;54.75;100758.09;106519;1271;24451;-74
2022/06/04 01:08:36;;;;;;;7.20;6.50;;;;;;;15.90;54.73;100751.39;106473;1271;26611;-73
2022/06/04 01:11:26;;;;;;;7.50;6.40;;;;;;;15.82;54.91;100748.77;106516;1271;22718;-75
2022/06/04 01:13:59;;;;;;;11.80;7.40;;;;;;;15.80;55.02;100749.86;106614;1271;22543;-77
2022/06/04 01:16:57;;;;;;;8.80;7.10;;;;;;;15.77;55.09;100746.73;106391;1271;22691;-77
2022/06/04 01:19:41;;;;;;;7.30;5.90;;;;;;;15.74;55.24;100741.66;106440;1271;25243;-76
2022/06/04 01:22:36;;;;;;;7.30;6.20;;;;;;;15.73;55.23;100736.73;106515;1271;22663;-71
2022/06/04 01:25:12;;;;;;;9.50;6.50;;;;;;;15.73;55.15;100733.71;106227;1271;24591;-73
2022/06/04 01:27:48;;;;;;;7.50;5.90;;;;;;;15.69;55.27;100731.66;106351;1271;22521;-71
2022/06/04 01:30:30;;;;;;;5.80;4.70;;;;;;;15.65;55.09;100733.00;106319;1271;22764;-76
2022/06/04 01:33:10;;;;;;;7.70;4.60;;;;;;;15.64;55.07;100729.86;106411;1271;22550;-74
2022/06/04 01:35:51;;;;;;;6.20;4.60;;;;;;;15.60;55.27;100727.10;106338;1271;22805;-77
2022/06/04 01:38:31;;;;;;;5.90;4.00;;;;;;;15.61;55.27;100721.94;106367;1271;25292;-76
2022/06/04 01:41:13;;;;;;;4.60;3.80;;;;;;;15.57;55.14;100719.88;106473;1271;24269;-70
2022/06/04 01:44:10;;;;;;;5.20;4.10;;;;;;;15.57;55.44;100720.25;106150;1271;25232;-76
2022/06/04 01:46:42;;;;;;;6.10;4.10;;;;;;;15.59;55.42;100723.59;106356;1271;22545;-76
2022/06/04 01:49:15;;;;;;;6.40;3.90;;;;;;;15.61;55.52;100722.82;108681;1269;22549;-83
2022/06/04 01:51:44;;;;;;;6.10;4.00;;;;;;;15.63;55.55;100720.65;109949;1271;22463;-82
2022/06/04 01:54:24;;;;;;;5.30;4.10;;;;;;;15.61;55.36;100724.96;109744;1271;22771;-82
2022/06/04 01:56:57;;;;;;;4.60;4.10;;;;;;;15.59;55.45;100726.59;109487;1271;25592;-80
2022/06/04 01:59:40;;;;;;;4.30;3.80;;;;;;;15.60;55.39;100729.75;108835;1271;22532;-80
2022/06/04 02:02:13;;;;;;;4.80;4.10;;;;;;;15.63;55.34;100731.48;108820;1271;22689;-78
2022/06/04 02:04:44;;;;;;;4.10;3.70;;;;;;;15.64;55.26;100730.92;108015;1271;22521;-81
2022/06/04 02:07:32;;;;;;;3.40;3.10;;;;;;;15.60;55.22;100729.59;108461;1271;22542;-81
2022/06/04 02:10:16;;;;;;;3.80;3.40;;;;;;;15.56;55.28;100720.09;108428;1271;22644;-79
2022/06/04 02:12:44;;;;;;;4.10;3.70;;;;;;;15.54;55.19;100708.42;106494;1271;22533;-77
2022/06/04 02:15:16;;;;;;;4.80;4.00;;;;;;;15.53;55.34;100699.23;106875;1271;23263;-79
2022/06/04 02:17:50;;;;;;;4.00;3.70;;;;;;;15.53;55.41;100695.48;106676;1271;24232;-79
2022/06/04 02:20:17;;;;;;;7.30;3.90;;;;;;;15.55;55.47;100693.48;106292;1271;22610;-76
2022/06/04 02:22:44;;;;;;;4.30;3.90;;;;;;;15.55;55.37;100684.81;105965;1277;22823;-77
2022/06/04 02:25:14;;;;;;;4.70;4.10;;;;;;;15.53;55.28;100686.80;105891;1276;22531;-76
2022/06/04 02:27:43;;;;;;;4.50;3.70;;;;;;;15.53;55.51;100690.88;105699;1274;22845;-80
2022/06/04 02:30:12;;;;;;;3.60;3.30;;;;;;;15.53;55.26;100688.75;105917;1274;22544;-79
2022/06/04 02:33:03;;;;;;;3.80;3.50;;;;;;;15.49;55.22;100688.85;105741;1277;22792;-80
2022/06/04 02:35:45;;;;;;;3.90;3.50;;;;;;;15.44;55.33;100687.90;105731;1280;22478;-81
2022/06/04 02:38:19;;;;;;;4.70;3.90;;;;;;;15.39;55.23;100685.20;105824;1280;22997;-77
2022/06/04 02:40:57;;;;;;;4.50;4.10;;;;;;;15.34;55.36;100677.14;106072;1274;24320;-76
2022/06/04 02:44:03;;;;;;;4.30;3.90;;;;;;;15.34;55.57;100674.29;106326;1274;24235;-79
2022/06/04 02:46:41;;;;;;;4.30;3.60;;;;;;;15.38;55.64;100675.10;106180;1274;25815;-78
2022/06/04 02:49:11;;;;;;;4.50;3.30;;;;;;;15.40;55.66;100672.77;106084;1274;22533;-77
2022/06/04 02:51:51;;;;;;;3.80;3.30;;;;;;;15.41;55.49;100667.60;106192;1274;24205;-75
2022/06/04 02:54:27;;;;;;;3.70;3.40;;;;;;;15.43;55.60;100671.96;106178;1271;24252;-77
2022/06/04 02:56:56;;;;;;;5.20;3.90;;;;;;;15.43;55.40;100666.30;106355;1271;24923;-76
2022/06/04 02:59:26;;;;;;;3.90;3.40;;;;;;;15.45;55.51;100665.17;106239;1271;22536;-80
2022/06/04 03:01:59;;;;;;;6.70;3.50;;;;;;;15.46;55.54;100664.45;106226;1271;22700;-81
2022/06/04 03:04:26;;;;;;;4.20;3.80;;;;;;;15.48;55.43;100662.44;106572;1271;22862;-79
2022/06/04 03:07:03;;;;;;;4.90;4.00;;;;;;;15.50;55.61;100659.37;106273;1271;25304;-78
2022/06/04 03:09:30;;;;;;;7.70;4.30;;;;;;;15.49;55.57;100655.67;106429;1271;22565;-77
2022/06/04 03:11:58;;;;;;;4.50;4.10;;;;;;;15.47;55.74;100659.61;105901;1274;25241;-78
2022/06/04 03:14:25;;;;;;;4.50;3.70;;;;;;;15.47;55.76;100662.28;106044;1274;22570;-81
2022/06/04 03:16:52;;;;;;;6.50;3.80;;;;;;;15.50;55.88;100667.02;106113;1274;22543;-79
2022/06/04 03:19:19;;;;;;;4.70;3.80;;;;;;;15.51;55.84;100668.77;106350;1274;25214;-77
2022/06/04 03:21:46;;;;;;;5.10;3.80;;;;;;;15.49;55.62;100670.92;106741;1274;22751;-78
2022/06/04 03:24:14;;;;;;;4.50;4.00;;;;;;;15.51;55.85;100666.63;106910;1274;22538;-77
2022/06/04 03:26:42;;;;;;;3.50;3.20;;;;;;;15.54;55.88;100665.82;107017;1274;22530;-77
2022/06/04 03:29:09;;;;;;;3.80;3.50;;;;;;;15.58;55.79;100659.53;108019;1274;22828;-82
2022/06/04 03:31:37;;;;;;;4.10;3.30;;;;;;;15.63;55.97;100649.46;108411;1271;22576;-78
2022/06/04 03:34:05;;;;;;;4.60;3.90;;;;;;;15.67;55.99;100648.09;107345;1271;22544;-76
2022/06/04 03:36:33;;;;;;;3.90;3.60;;;;;;;15.68;55.86;100643.81;107359;1271;22698;-76
2022/06/04 03:39:01;;;;;;;4.00;3.60;;;;;;;15.70;55.80;100643.59;107652;1271;24666;-77
2022/06/04 03:41:32;;;;;;;4.80;3.70;;;;;;;15.69;55.64;100649.30;106990;1271;22684;-77
2022/06/04 03:43:59;;;;;;;3.90;3.50;;;;;;;15.68;55.76;100643.83;106402;1271;25230;-81
2022/06/04 03:46:27;;;;;;;5.40;3.80;;;;;;;15.68;55.80;100642.77;106495;1271;22517;-81
2022/06/04 03:48:56;;;;;;;5.30;3.70;;;;;;;15.69;55.87;100643.98;106260;1271;25201;-80
2022/06/04 03:51:26;;;;;;;4.00;3.50;;;;;;;15.72;55.92;100642.48;106488;1271;25297;-76
2022/06/04 03:53:54;;;;;;;6.60;3.70;;;;;;;15.76;55.99;100644.48;106520;1271;22538;-84
2022/06/04 03:56:22;;;;;;;5.30;3.80;;;;;;;15.79;55.96;100640.34;106649;1271;25238;-79
2022/06/04 03:58:49;;;;;;;3.30;3.00;;;;;;;15.83;55.82;100637.05;106360;1273;25348;-80
2022/06/04 04:01:21;;;;;;;6.40;3.70;;;;;;;15.85;55.88;100633.25;106540;1271;24310;-80
2022/06/04 04:03:48;;;;;;;3.90;3.30;;;;;;;15.89;55.68;100625.50;106201;1271;22656;-80
2022/06/04 04:06:23;;;;;;;3.60;3.30;;;;;;;15.94;55.90;100624.66;106164;1271;22516;-81
2022/06/04 04:08:51;;;;;;;4.70;3.30;;;;;;;16.00;55.96;100623.80;106288;1271;25536;-81
2022/06/04 04:11:23;;;;;;;3.20;2.90;;;;;;;16.07;55.86;100624.34;106236;1271;25630;-80
2022/06/04 04:13:51;;;;;;;3.90;3.40;;;;;;;16.12;55.74;100623.30;106210;1271;22619;-79
2022/06/04 04:16:20;;;;;;;3.90;3.60;;;;;;;16.15;55.80;100618.79;106345;1271;25346;-81
2022/06/04 04:18:47;;;;;;;4.50;3.40;;;;;;;16.19;55.67;100616.16;106158;1271;24225;-82
2022/06/04 04:21:17;;;;;;;4.50;3.10;;;;;;;16.26;55.53;100611.38;106193;1271;22566;-77
2022/06/04 04:23:44;;;;;;;5.30;3.40;;;;;;;16.33;55.59;100609.71;106569;1271;22471;-79
2022/06/04 04:26:13;;;;;;;4.20;3.30;;;;;;;16.40;55.33;100604.20;106362;1271;23925;-84
2022/06/04 04:28:41;;;;;;;4.30;3.60;;;;;;;16.44;55.49;100599.44;106232;1271;24567;-81
2022/06/04 04:31:11;;;;;;;6.20;3.80;;;;;;;16.50;55.37;100606.39;106054;1274;25325;-79
2022/06/04 04:33:39;;;;;;;3.60;3.30;;;;;;;16.55;55.47;100605.00;106073;1274;22867;-81
2022/06/04 04:36:08;;;;;;;4.00;3.40;;;;;;;16.62;55.44;100608.35;105894;1274;25210;-82
2022/06/04 04:38:35;;;;;;;3.90;3.60;;;;;;;16.68;55.69;100609.75;105977;1278;22548;-78
2022/06/04 04:41:07;;;;;;;3.80;3.40;;;;;;;16.72;55.70;100616.20;106108;1274;22544;-81
2022/06/04 04:43:34;;;;;;;4.90;4.50;;;;;;;16.78;55.71;100620.98;106111;1274;22528;-79
2022/06/04 04:46:04;;;;;;;4.10;3.50;;;;;;;16.81;55.61;100623.38;105989;1274;22543;-80
2022/06/04 04:48:31;;;;;;;4.50;3.30;;;;;;;16.86;55.53;100621.47;106171;1272;22690;-82
2022/06/04 04:50:59;;;;;;;5.50;3.70;;;;;;;16.87;55.38;100619.29;106379;1271;25219;-76
2022/06/04 04:53:26;;;;;;;4.40;3.60;;;;;;;16.87;55.21;100618.95;106585;1271;24216;-84
2022/06/04 04:55:54;;;;;;;5.60;3.40;;;;;;;16.87;55.37;100617.90;106675;1271;22538;-82
2022/06/04 04:58:21;;;;;;;5.40;3.20;;;;;;;16.82;55.29;100611.79;106605;1271;22533;-83
2022/06/04 05:00:48;;;;;;;4.70;3.60;;;;;;;16.81;55.49;100607.36;106862;1272;22648;-80
2022/06/04 05:03:15;;;;;;;3.50;3.20;;;;;;;16.83;55.55;100599.86;106587;1274;22609;-82
2022/06/04 05:05:42;;;;;;;4.00;3.60;;;;;;;16.88;55.69;100600.08;106913;1271;23941;-84
2022/06/04 05:08:09;;;;;;;5.20;3.50;;;;;;;16.92;55.44;100597.98;106806;1272;22522;-86
2022/06/04 05:10:36;;;;;;;4.30;3.90;;;;;;;16.96;55.74;100600.52;107380;1271;22601;-84
2022/06/04 05:13:03;;;;;;;5.70;3.90;;;;;;;16.99;55.55;100602.38;107385;1271;25273;-83
2022/06/04 05:15:30;;;;;;;4.60;3.80;;;;;;;17.02;55.44;100599.80;106819;1271;25350;-84
2022/06/04 05:17:57;;;;;;;8.20;4.30;;;;;;;17.06;55.40;100602.33;106618;1271;22613;-84
2022/06/04 05:20:24;;;;;;;5.00;4.50;;;;;;;17.10;55.41;100601.16;106682;1271;24288;-86
2022/06/04 05:22:52;;;;;;;4.80;4.40;;;;;;;17.13;55.23;100595.40;106682;1274;22608;-79
2022/06/04 05:25:19;;;;;;;4.90;3.80;;;;;;;17.15;55.46;100591.94;106055;1275;23262;-85
2022/06/04 05:27:47;;;;;;;8.10;3.60;;;;;;;17.18;55.56;100594.84;106167;1275;22585;-82
2022/06/04 05:30:15;;;;;;;4.20;3.50;;;;;;;17.21;55.61;100592.45;107223;1274;24220;-85
2022/06/04 05:32:43;;;;;;;3.50;3.20;;;;;;;17.22;55.53;100592.77;106335;1275;25340;-83
2022/06/04 05:35:10;;;;;;;4.20;3.60;;;;;;;17.26;55.32;100597.98;105732;1275;408459;-81
2022/06/04 05:37:37;;;;;;;4.30;3.90;;;;;;;17.29;55.39;100603.20;105656;1280;22540;-82
2022/06/04 05:40:05;;;;;;;5.60;3.60;;;;;;;17.32;55.29;100605.61;105760;1280;22557;-82
2022/06/04 05:42:34;;;;;;;3.90;3.50;;;;;;;17.37;55.08;100605.80;105716;1280;22547;-85
2022/06/04 05:45:01;;;;;;;4.20;3.70;;;;;;;17.42;54.95;100602.76;105867;1277;24212;-84
2022/06/04 05:47:28;;;;;;;6.20;3.70;;;;;;;17.47;54.75;100603.15;105994;1279;22541;-84
2022/06/04 05:49:55;;;;;;;5.30;3.60;;;;;;;17.51;54.98;100607.09;105771;1277;22495;-83
2022/06/04 05:52:23;;;;;;;7.40;3.30;;;;;;;17.55;54.95;100606.95;106001;1277;23261;-87
2022/06/04 05:54:54;;;;;;;4.90;4.40;;;;;;;17.60;54.74;100607.32;105803;1274;22532;-84
2022/06/04 05:57:22;;;;;;;7.20;3.70;;;;;;;17.64;54.58;100605.05;106321;1271;22954;-85
2022/06/04 05:59:50;;;;;;;4.60;3.60;;;;;;;17.68;54.69;100605.08;106533;1271;22748;-84
2022/06/04 06:02:17;;;;;;;4.90;3.70;;;;;;;17.73;54.81;100604.20;106478;1271;24154;-81
2022/06/04 06:04:44;;;;;;;5.20;3.60;;;;;;;17.78;54.87;100608.63;106441;1271;22794;-82
2022/06/04 06:07:11;;;;;;;3.70;3.30;;;;;;;17.83;54.63;100607.94;106470;1271;25464;-80
2022/06/04 06:09:39;;;;;;;5.20;4.20;;;;;;;17.87;54.69;100605.83;106435;1271;24695;-81
2022/06/04 06:12:08;;;;;;;4.70;3.80;;;;;;;17.90;54.71;100605.00;105973;1274;22489;-81
2022/06/04 06:14:36;;;;;;;8.00;7.00;;;;;;;17.95;54.69;100600.57;106042;1274;22613;-80
2022/06/04 06:17:04;;;;;;;5.40;4.00;;;;;;;17.99;54.66;100604.88;105875;1274;24468;-82
2022/06/04 06:19:31;;;;;;;4.40;4.00;;;;;;;18.03;54.61;100609.34;105960;1274;25506;-82
2022/06/04 06:21:58;;;;;;;5.00;4.30;;;;;;;18.09;54.45;100612.89;106264;1274;25642;-83
2022/06/04 06:24:25;;;;;;;5.00;4.00;;;;;;;18.13;54.39;100613.30;106177;1277;22868;-84
2022/06/04 06:26:57;;;;;;;4.60;4.20;;;;;;;18.19;54.34;100616.45;106261;1277;25615;-80
2022/06/04 06:29:32;;;;;;;5.20;3.60;;;;;;;18.26;54.38;100618.70;106070;1277;23133;-80
2022/06/04 06:32:04;;;;;;;5.80;4.20;;;;;;;18.32;54.32;100617.77;106121;1277;23822;-78
2022/06/04 06:34:34;;;;;;;5.70;3.80;;;;;;;18.41;54.32;100617.45;106097;1277;23027;-81
2022/06/04 06:37:02;;;;;;;3.80;3.40;;;;;;;18.48;54.32;100613.42;106522;1271;25555;-77
2022/06/04 06:39:31;;;;;;;5.10;3.70;;;;;;;18.55;54.09;100611.72;106767;1272;22525;-81
2022/06/04 06:42:01;;;;;;;7.40;3.40;;;;;;;18.65;54.06;100612.43;106079;1277;22534;-82
2022/06/04 06:44:40;;;;;;;5.80;3.90;;;;;;;18.75;53.96;100609.34;105660;1283;22585;-79
2022/06/04 06:47:07;;;;;;;5.40;4.70;;;;;;;18.83;53.98;100608.31;106739;1282;22825;-77
2022/06/04 06:49:35;;;;;;;7.50;5.00;;;;;;;18.91;53.65;100601.94;105936;1284;25271;-79
2022/06/04 06:52:10;;;;;;;;;;;;;;;19.01;53.41;100604.55;106167;1281;25200;-83
2022/06/04 06:54:38;;;;;;;4.70;2.90;;;;;;;19.09;53.33;100601.39;105650;1282;24232;-82
2022/06/04 06:57:08;;;;;;;4.40;3.20;;;;;;;19.18;53.33;100595.31;105589;1281;26054;-85
2022/06/04 06:59:36;;;;;;;4.30;3.40;;;;;;;19.31;53.19;100591.75;105369;1277;23083;-77
2022/06/04 07:02:04;;;;;;;3.40;3.10;;;;;;;19.47;53.04;100592.51;105660;1282;25519;-78
2022/06/04 07:04:31;;;;;;;3.70;3.10;;;;;;;19.64;52.84;100592.30;105677;1280;22571;-81
2022/06/04 07:07:01;;;;;;;4.50;2.90;;;;;;;19.84;52.77;100590.52;105270;1282;25245;-80
2022/06/04 07:09:31;;;;;;;5.70;3.00;;;;;;;20.08;52.85;100594.83;105073;1284;24218;-80
2022/06/04 07:12:00;;;;;;;4.00;3.10;;;;;;;20.33;52.41;100596.77;105671;1280;22691;-77
2022/06/04 07:14:27;;;;;;;3.90;2.90;;;;;;;20.53;51.80;100601.90;105536;1280;22675;-79
2022/06/04 07:16:57;;;;;;;4.80;4.10;;;;;;;20.72;51.65;100598.14;105459;1281;22546;-80
2022/06/04 07:19:25;;;;;;;4.80;4.00;;;;;;;20.90;51.16;100598.36;105556;1280;24487;-80
2022/06/04 07:21:53;;;;;;;5.10;2.80;;;;;;;21.09;50.72;100596.96;106006;1278;22564;-76
2022/06/04 07:24:21;;;;;;;6.10;2.80;;;;;;;21.23;49.94;100599.81;105877;1279;22622;-81
2022/06/04 07:26:49;;;;;;;4.60;2.60;;;;;;;21.37;50.00;100593.73;105976;1274;22612;-79
2022/06/04 07:29:17;;;;;;;2.90;2.70;;;;;;;21.49;49.53;100597.08;106015;1278;22643;-82
2022/06/04 07:31:44;;;;;;;6.50;2.70;;;;;;;21.60;49.16;100591.50;106193;1277;22547;-80
2022/06/04 07:34:11;;;;;;;3.70;2.90;;;;;;;21.72;49.15;100594.64;106379;1277;25602;-80
2022/06/04 07:36:45;;;;;;;3.80;2.40;;;;;;;21.82;48.84;100592.70;106636;1276;25260;-80
2022/06/04 07:39:18;;;;;;;6.10;3.00;;;;;;;21.91;48.88;100591.52;108126;1277;22828;-81
2022/06/04 07:41:52;;;;;;;3.40;2.60;;;;;;;22.03;48.85;100596.25;108231;1281;22574;-81
2022/06/04 07:44:24;;;;;;;2.60;2.30;;;;;;;22.19;48.78;100599.36;108320;1281;23073;-78
2022/06/04 07:46:54;;;;;;;2.90;2.60;;;;;;;22.34;48.03;100601.23;107093;1281;23070;-81
2022/06/04 07:49:21;;;;;;;2.50;2.30;;;;;;;22.47;47.93;100599.73;106570;1281;23177;-79
2022/06/04 07:51:50;;;;;;;5.90;2.70;;;;;;;22.61;47.52;100601.35;107346;1281;23299;-78
2022/06/04 07:54:19;;;;;;;2.90;2.50;;;;;;;22.76;46.99;100600.52;108030;1281;22640;-78
2022/06/04 07:56:46;;;;;;;4.60;2.50;;;;;;;22.92;46.73;100596.96;108401;1281;22735;-77
2022/06/04 07:59:16;;;;;;;3.80;2.50;;;;;;;23.04;46.44;100595.70;108154;1278;22579;-77
2022/06/04 08:01:45;;;;;;;3.10;2.50;;;;;;;23.19;46.32;100591.98;107992;1277;25391;-77
2022/06/04 08:04:13;;;;;;;4.70;2.90;;;;;;;23.32;46.22;100587.25;106731;1280;24221;-77
2022/06/04 08:06:40;;;;;;;3.00;2.70;;;;;;;23.40;46.00;100583.22;106337;1284;23316;-77
2022/06/04 08:09:08;;;;;;;3.80;2.50;;;;;;;23.47;45.89;100586.20;106276;1283;26618;-78
2022/06/04 08:11:35;;;;;;;2.40;2.20;;;;;;;23.47;45.94;100587.27;106355;1282;24256;-79
2022/06/04 08:14:19;;;;;;;2.90;2.60;;;;;;;23.49;45.72;100586.64;105993;1281;24133;-77
2022/06/04 08:16:51;;;;;;;4.80;2.70;;;;;;;23.46;45.41;100584.79;105719;1282;26482;-78
2022/06/04 08:19:22;;;;;;;2.70;2.50;;;;;;;23.44;45.21;100583.16;105641;1282;25351;-77
2022/06/04 08:21:51;;;;;;;3.30;2.50;;;;;;;23.44;45.69;100583.36;105743;1280;23301;-77
2022/06/04 08:24:20;;;;;;;3.10;2.90;;;;;;;23.45;45.11;100579.34;106131;1271;25359;-77
2022/06/04 08:26:53;;;;;;;3.10;2.70;;;;;;;23.44;45.17;100580.65;106772;1271;22589;-77
2022/06/04 08:29:21;;;;;;;4.20;2.70;;;;;;;23.43;44.78;100573.17;108375;1269;22567;-80
2022/06/04 08:31:48;;;;;;;3.00;2.80;;;;;;;23.42;45.04;100573.59;108336;1271;22568;-78
2022/06/04 08:34:16;;;;;;;3.10;2.60;;;;;;;23.41;45.27;100573.45;108009;1271;22541;-78
2022/06/04 08:36:43;;;;;;;3.00;2.70;;;;;;;23.40;45.24;100566.89;107348;1271;22840;-77
2022/06/04 08:39:10;;;;;;;3.90;2.90;;;;;;;23.37;45.35;100568.46;107355;1271;25512;-78
2022/06/04 08:41:43;;;;;;;6.80;2.50;;;;;;;23.35;45.44;100567.67;107263;1271;22585;-76
2022/06/04 08:44:33;;;;;;;2.90;2.50;;;;;;;23.33;45.70;100568.33;107316;1271;24098;-78
2022/06/04 08:47:23;;;;;;;4.00;2.90;;;;;;;23.25;45.86;100572.20;106819;1277;23447;-75
2022/06/04 08:49:59;;;;;;;9.60;3.00;;;;;;;23.20;46.11;100578.59;107083;1277;26600;-76
2022/06/04 08:52:33;;;;;;;5.00;2.50;;;;;;;23.13;45.89;100583.88;106876;1277;23445;-77
2022/06/04 08:58:36;;;;;;;8.90;2.80;;;;;;;23.03;46.05;100587.36;106805;1278;23189;-77
2022/06/04 09:01:10;;;;;;;4.40;2.70;;;;;;;22.97;46.27;100581.18;105799;1284;22558;-76
2022/06/04 09:04:26;;;;;;;5.90;2.90;;;;;;;22.95;46.50;100577.36;106452;1277;25342;-79
2022/06/04 09:07:20;;;;;;;7.30;2.90;;;;;;;22.90;46.62;100576.96;106401;1271;22791;-79
2022/06/04 09:10:13;;;;;;;2.40;2.20;;;;;;;22.86;47.21;100573.20;106681;1271;22716;-77
2022/06/04 09:12:57;;;;;;;4.10;2.50;;;;;;;22.87;47.42;100570.65;106265;1277;22850;-77
2022/06/04 09:15:31;;;;;;;4.00;3.00;;;;;;;22.90;47.96;100565.28;106097;1278;22616;-75
2022/06/04 09:18:04;;;;;;;4.20;2.60;;;;;;;22.92;48.09;100562.48;106049;1277;22586;-79
2022/06/04 09:20:34;;;;;;;7.00;2.80;;;;;;;22.93;48.08;100562.74;106002;1277;25242;-81
2022/06/04 09:23:34;;;;;;;6.40;3.30;;;;;;;22.97;48.45;100561.84;106013;1277;25242;-81
2022/06/04 09:26:13;;;;;;;4.50;2.30;;;;;;;23.00;48.75;100564.83;105938;1277;23965;-77
2022/06/04 09:28:49;;;;;;;4.30;2.50;;;;;;;23.03;48.63;100570.64;105889;1278;22552;-80
2022/06/04 09:31:47;;;;;;;3.60;3.10;;;;;;;23.02;48.74;100572.86;106022;1277;25360;-79
2022/06/04 09:34:29;;;;;;;4.80;2.90;;;;;;;23.01;48.67;100573.63;104651;1288;24404;-78
2022/06/04 09:36:57;;;;;;;3.90;2.30;;;;;;;23.01;48.51;100572.00;105300;1286;22628;-79
2022/06/04 09:39:31;;;;;;;5.70;3.10;;;;;;;23.00;48.54;100573.11;105677;1284;24232;-78
2022/06/04 09:42:05;;;;;;;5.00;2.70;;;;;;;23.00;48.78;100573.10;105271;1284;25247;-76
2022/06/04 09:44:37;;;;;;;3.60;2.50;;;;;;;23.01;48.47;100575.01;105282;1284;22734;-79
2022/06/04 09:47:04;;;;;;;3.80;2.70;;;;;;;23.02;48.06;100578.58;105339;1288;22490;-74
2022/06/04 09:49:54;;;;;;;3.30;2.60;;;;;;;23.00;48.14;100577.58;105203;1287;22671;-79
2022/06/04 09:52:27;;;;;;;2.90;2.50;;;;;;;23.01;48.87;100577.35;105619;1284;24263;-79
2022/06/04 09:54:58;;;;;;;4.10;2.50;;;;;;;23.04;48.37;100579.03;106540;1284;22624;-75
2022/06/04 09:57:31;;;;;;;5.40;2.80;;;;;;;23.08;48.30;100582.75;106750;1284;22580;-74
2022/06/04 10:00:00;;;;;;;4.30;2.30;;;;;;;23.10;48.33;100583.85;105610;1284;22564;-80
2022/06/04 10:02:28;;;;;;;2.70;2.50;;;;;;;23.10;48.38;100585.83;104917;1287;24295;-79
2022/06/04 10:05:06;;;;;;;3.80;2.60;;;;;;;23.08;48.41;100586.33;105241;1284;25289;-80
2022/06/04 10:07:38;;;;;;;5.10;3.00;;;;;;;23.07;49.02;100591.77;105042;1287;22677;-78
2022/06/04 10:10:28;;;;;;;4.80;2.60;;;;;;;23.03;48.82;100588.20;104457;1294;23952;-75
2022/06/04 10:15:49;;;;;;;2.50;2.30;;;;;;;23.06;49.70;100587.88;105007;1286;23216;-80
2022/06/04 10:18:32;;;;;;;5.40;2.50;;;;;;;23.09;49.39;100583.20;105158;1285;23244;-80
2022/06/04 10:21:01;;;;;;;5.80;2.90;;;;;;;23.13;48.71;100581.20;105309;1281;22844;-80
2022/06/04 10:23:31;;;;;;;2.40;2.20;;;;;;;23.19;49.09;100580.61;105261;1282;25983;-81
2022/06/04 10:26:24;;;;;;;8.00;2.70;;;;;;;23.24;48.63;100583.35;105708;1281;23233;-79
2022/06/04 10:29:09;;;;;;;4.90;2.40;;;;;;;23.30;48.10;100579.63;105869;1277;22547;-81
2022/06/04 10:31:48;;;;;;;5.00;2.40;;;;;;;23.36;47.84;100585.20;106019;1274;24252;-83
2022/06/04 10:34:27;;;;;;;6.30;3.00;;;;;;;23.40;47.77;100587.34;105990;1274;22821;-82
2022/06/04 10:37:17;;;;;;;4.00;2.50;;;;;;;23.45;47.93;100584.19;105947;1274;22547;-79
2022/06/04 10:40:31;;;;;;;5.60;2.80;;;;;;;23.52;48.03;100587.35;106662;1274;22995;-80
2022/06/04 10:43:17;;;;;;;7.20;2.60;;;;;;;23.60;47.79;100588.84;106020;1277;26376;-80
2022/06/04 10:45:54;;;;;;;4.50;2.40;;;;;;;23.67;47.85;100589.85;105987;1275;23024;-78
2022/06/04 10:48:44;;;;;;;4.00;2.60;;;;;;;23.69;47.64;100583.06;106158;1271;25554;-80
2022/06/04 10:51:26;;;;;;;4.10;2.60;;;;;;;23.72;47.48;100584.70;106333;1271;25312;-81
2022/06/04 10:54:16;;;;;;;4.00;2.80;;;;;;;23.71;47.64;100587.09;106359;1271;22570;-81
2022/06/04 10:56:46;;;;;;;7.90;3.10;;;;;;;23.74;47.92;100582.95;106425;1271;22525;-80
2022/06/04 10:59:37;;;;;;;6.90;3.70;;;;;;;23.74;47.84;100581.31;106317;1269;24229;-84
2022/06/04 11:02:13;;;;;;;7.80;4.70;;;;;;;23.70;48.20;100582.48;106357;1271;22530;-81
2022/06/04 11:04:48;;;;;;;5.70;5.10;;;;;;;23.56;48.54;100590.00;106284;1271;22983;-78
2022/06/04 11:07:15;;;;;;;;;;;;;;;23.30;49.11;100588.06;106542;1271;22527;-75
2022/06/04 11:09:44;;;;;;;7.00;5.30;;;;;;;23.10;49.77;100589.77;106524;1271;22699;-76
2022/06/04 11:12:30;;;;;;;7.30;5.80;;;;;;;22.94;50.64;100584.06;106525;1272;22551;-76
2022/06/04 11:15:04;;;;;;;9.20;5.90;;;;;;;23.01;50.86;100583.66;106977;1270;26528;-77
2022/06/04 11:18:02;;;;;;;7.50;6.50;;;;;;;23.09;50.83;100581.96;106241;1274;22599;-78
2022/06/04 11:20:35;;;;;;;7.70;6.10;;;;;;;23.05;50.87;100582.38;106074;1276;23953;-78
2022/06/04 11:23:37;;;;;;;8.10;5.10;;;;;;;23.07;51.12;100580.83;106233;1274;26484;-80
2022/06/04 11:26:12;;;;;;;7.50;5.90;;;;;;;22.95;51.24;100574.83;106340;1276;24321;-78
2022/06/04 11:28:39;;;;;;;6.90;5.70;;;;;;;22.99;51.29;100574.80;106068;1274;26756;-76
2022/06/04 11:31:19;;;;;;;6.30;5.50;;;;;;;23.05;51.24;100573.93;106520;1274;22588;-77
2022/06/04 11:33:51;;;;;;;5.80;5.20;;;;;;;23.11;50.41;100572.66;105918;1280;22581;-82
2022/06/04 11:36:39;;;;;;;7.70;4.90;;;;;;;23.11;50.60;100574.47;105841;1277;25242;-80
2022/06/04 11:39:33;;;;;;;11.90;6.20;;;;;;;23.16;50.70;100575.27;105466;1283;24267;-80
2022/06/04 11:42:19;;;;;;;7.00;5.60;;;;;;;23.34;50.38;100570.24;105254;1284;22566;-81
2022/06/04 11:44:56;;;;;;;7.80;5.90;;;;;;;23.61;50.25;100567.21;104779;1287;24349;-78
2022/06/04 11:48:10;;;;;;;8.80;5.80;;;;;;;24.03;49.82;100562.34;104797;1287;25376;-81
2022/06/04 11:50:49;;;;;;;5.20;4.70;;;;;;;24.40;49.17;100559.42;104372;1287;25323;-79
2022/06/04 11:53:53;;;;;;;12.50;4.80;;;;;;;24.73;48.15;100554.05;105488;1283;26562;-76
2022/06/04 11:56:43;;;;;;;4.00;3.70;;;;;;;25.04;47.10;100548.84;105490;1283;22539;-79
2022/06/04 11:59:46;;;;;;;6.70;4.20;;;;;;;25.33;46.35;100540.20;106006;1282;22548;-79